sensor_id;sensor_type;location;lat;lon;timestamp;P1;durP1;ratioP1;P2;durP2;ratioP2
8714;SDS011;4394;51.208;8.904;2024-03-02T00:00:59;7.97;;;6.27;;
8714;SDS011;4394;51.208;8.904;2024-03-02T00:03:48;8.40;;;6.27;;
8714;SDS011;4394;51.208;8.904;2024-03-02T00:06:38;7.83;;;6.33;;
8714;SDS011;4394;51.208;8.904;2024-03-02T00:09:26;7.97;;;6.13;;
8714;SDS011;4394;51.208;8.904;2024-03-02T00:12:15;8.33;;;5.63;;
8714;SDS011;4394;51.208;8.904;2024-03-02T00:15:04;7.80;;;5.93;;
8714;SDS011;4394;51.208;8.904;2024-03-02T00:17:54;8.37;;;5.83;;
8714;SDS011;4394;51.208;8.904;2024-03-02T00:20:44;6.60;;;5.90;;
8714;SDS011;4394;51.208;8.904;2024-03-02T00:23:34;8.20;;;5.90;;
8714;SDS011;4394;51.208;8.904;2024-03-02T00:26:23;7.73;;;6.13;;
8714;SDS011;4394;51.208;8.904;2024-03-02T00:29:12;10.23;;;6.40;;
8714;SDS011;4394;51.208;8.904;2024-03-02T00:32:07;7.83;;;6.10;;
8714;SDS011;4394;51.208;8.904;2024-03-02T00:35:01;7.90;;;5.53;;
8714;SDS011;4394;51.208;8.904;2024-03-02T00:37:52;8.60;;;6.60;;
8714;SDS011;4394;51.208;8.904;2024-03-02T00:40:42;7.87;;;5.70;;
8714;SDS011;4394;51.208;8.904;2024-03-02T00:43:43;9.20;;;6.17;;
8714;SDS011;4394;51.208;8.904;2024-03-02T00:46:35;11.47;;;6.90;;
8714;SDS011;4394;51.208;8.904;2024-03-02T00:49:24;8.10;;;6.33;;
8714;SDS011;4394;51.208;8.904;2024-03-02T00:52:14;8.30;;;6.37;;
8714;SDS011;4394;51.208;8.904;2024-03-02T00:55:03;8.27;;;6.17;;
8714;SDS011;4394;51.208;8.904;2024-03-02T00:57:53;8.00;;;6.20;;
8714;SDS011;4394;51.208;8.904;2024-03-02T01:00:42;9.10;;;6.07;;
8714;SDS011;4394;51.208;8.904;2024-03-02T01:03:30;8.33;;;6.20;;
8714;SDS011;4394;51.208;8.904;2024-03-02T01:06:19;7.67;;;6.00;;
8714;SDS011;4394;51.208;8.904;2024-03-02T01:09:09;7.93;;;5.90;;
8714;SDS011;4394;51.208;8.904;2024-03-02T01:11:59;8.30;;;6.20;;
8714;SDS011;4394;51.208;8.904;2024-03-02T01:14:48;8.00;;;5.97;;
8714;SDS011;4394;51.208;8.904;2024-03-02T01:17:37;7.60;;;5.53;;
8714;SDS011;4394;51.208;8.904;2024-03-02T01:20:25;9.93;;;6.30;;
8714;SDS011;4394;51.208;8.904;2024-03-02T01:23:13;8.17;;;5.87;;
8714;SDS011;4394;51.208;8.904;2024-03-02T01:26:02;6.23;;;5.47;;
8714;SDS011;4394;51.208;8.904;2024-03-02T01:28:50;8.53;;;6.63;;
8714;SDS011;4394;51.208;8.904;2024-03-02T01:31:40;7.47;;;5.97;;
8714;SDS011;4394;51.208;8.904;2024-03-02T01:34:28;6.90;;;5.63;;
8714;SDS011;4394;51.208;8.904;2024-03-02T01:37:17;9.23;;;6.00;;
8714;SDS011;4394;51.208;8.904;2024-03-02T01:40:05;9.07;;;6.57;;
8714;SDS011;4394;51.208;8.904;2024-03-02T01:42:56;9.13;;;6.57;;
8714;SDS011;4394;51.208;8.904;2024-03-02T01:45:45;9.60;;;6.77;;
8714;SDS011;4394;51.208;8.904;2024-03-02T01:48:35;10.63;;;6.87;;
8714;SDS011;4394;51.208;8.904;2024-03-02T01:51:23;9.33;;;6.70;;
8714;SDS011;4394;51.208;8.904;2024-03-02T01:54:12;9.50;;;6.43;;
8714;SDS011;4394;51.208;8.904;2024-03-02T01:57:00;11.07;;;7.37;;
8714;SDS011;4394;51.208;8.904;2024-03-02T01:59:48;10.20;;;7.07;;
8714;SDS011;4394;51.208;8.904;2024-03-02T02:02:37;10.33;;;7.40;;
8714;SDS011;4394;51.208;8.904;2024-03-02T02:05:27;9.70;;;7.13;;
8714;SDS011;4394;51.208;8.904;2024-03-02T02:08:16;10.43;;;7.23;;
8714;SDS011;4394;51.208;8.904;2024-03-02T02:11:05;12.43;;;8.30;;
8714;SDS011;4394;51.208;8.904;2024-03-02T02:13:54;9.30;;;6.87;;
8714;SDS011;4394;51.208;8.904;2024-03-02T02:16:42;10.97;;;8.10;;
8714;SDS011;4394;51.208;8.904;2024-03-02T02:19:31;9.77;;;7.20;;
8714;SDS011;4394;51.208;8.904;2024-03-02T02:22:21;8.53;;;7.33;;
8714;SDS011;4394;51.208;8.904;2024-03-02T02:25:09;11.43;;;8.07;;
8714;SDS011;4394;51.208;8.904;2024-03-02T02:27:58;9.73;;;7.43;;
8714;SDS011;4394;51.208;8.904;2024-03-02T02:30:46;11.83;;;7.93;;
8714;SDS011;4394;51.208;8.904;2024-03-02T02:33:36;10.97;;;7.83;;
8714;SDS011;4394;51.208;8.904;2024-03-02T02:36:27;11.20;;;8.20;;
8714;SDS011;4394;51.208;8.904;2024-03-02T02:39:17;9.43;;;7.53;;
8714;SDS011;4394;51.208;8.904;2024-03-02T02:42:08;9.63;;;7.07;;
8714;SDS011;4394;51.208;8.904;2024-03-02T02:44:57;11.80;;;8.17;;
8714;SDS011;4394;51.208;8.904;2024-03-02T02:47:45;12.23;;;8.57;;
8714;SDS011;4394;51.208;8.904;2024-03-02T02:50:33;12.30;;;7.77;;
8714;SDS011;4394;51.208;8.904;2024-03-02T02:53:22;13.13;;;8.10;;
8714;SDS011;4394;51.208;8.904;2024-03-02T02:56:11;11.20;;;7.87;;
8714;SDS011;4394;51.208;8.904;2024-03-02T02:59:00;14.10;;;8.77;;
8714;SDS011;4394;51.208;8.904;2024-03-02T03:01:48;13.27;;;8.20;;
8714;SDS011;4394;51.208;8.904;2024-03-02T03:04:39;12.20;;;8.23;;
8714;SDS011;4394;51.208;8.904;2024-03-02T03:07:28;14.27;;;9.10;;
8714;SDS011;4394;51.208;8.904;2024-03-02T03:10:16;13.87;;;9.07;;
8714;SDS011;4394;51.208;8.904;2024-03-02T03:13:06;16.03;;;9.10;;
8714;SDS011;4394;51.208;8.904;2024-03-02T03:15:55;14.70;;;9.57;;
8714;SDS011;4394;51.208;8.904;2024-03-02T03:18:44;14.40;;;9.50;;
8714;SDS011;4394;51.208;8.904;2024-03-02T03:21:32;15.10;;;9.43;;
8714;SDS011;4394;51.208;8.904;2024-03-02T03:24:21;14.90;;;9.77;;
8714;SDS011;4394;51.208;8.904;2024-03-02T03:27:09;14.33;;;9.23;;
8714;SDS011;4394;51.208;8.904;2024-03-02T03:29:59;16.23;;;9.63;;
8714;SDS011;4394;51.208;8.904;2024-03-02T03:32:48;15.07;;;9.53;;
8714;SDS011;4394;51.208;8.904;2024-03-02T03:35:36;16.20;;;10.37;;
8714;SDS011;4394;51.208;8.904;2024-03-02T03:38:24;16.77;;;10.37;;
8714;SDS011;4394;51.208;8.904;2024-03-02T03:41:13;16.93;;;9.97;;
8714;SDS011;4394;51.208;8.904;2024-03-02T03:44:01;14.63;;;9.77;;
8714;SDS011;4394;51.208;8.904;2024-03-02T03:46:51;16.60;;;10.87;;
8714;SDS011;4394;51.208;8.904;2024-03-02T03:49:40;15.53;;;10.27;;
8714;SDS011;4394;51.208;8.904;2024-03-02T03:52:28;17.97;;;10.13;;
8714;SDS011;4394;51.208;8.904;2024-03-02T03:55:17;17.60;;;10.43;;
8714;SDS011;4394;51.208;8.904;2024-03-02T03:58:05;16.23;;;10.47;;
8714;SDS011;4394;51.208;8.904;2024-03-02T04:00:53;17.90;;;10.57;;
8714;SDS011;4394;51.208;8.904;2024-03-02T04:03:43;18.07;;;11.50;;
8714;SDS011;4394;51.208;8.904;2024-03-02T04:06:31;17.83;;;11.10;;
8714;SDS011;4394;51.208;8.904;2024-03-02T04:09:20;18.27;;;10.87;;
8714;SDS011;4394;51.208;8.904;2024-03-02T04:12:08;18.20;;;10.97;;
8714;SDS011;4394;51.208;8.904;2024-03-02T04:15:00;17.77;;;10.97;;
8714;SDS011;4394;51.208;8.904;2024-03-02T04:17:50;19.57;;;10.90;;
8714;SDS011;4394;51.208;8.904;2024-03-02T04:20:40;18.10;;;11.20;;
8714;SDS011;4394;51.208;8.904;2024-03-02T04:23:28;20.53;;;11.93;;
8714;SDS011;4394;51.208;8.904;2024-03-02T04:26:16;19.57;;;11.67;;
8714;SDS011;4394;51.208;8.904;2024-03-02T04:29:08;19.33;;;11.60;;
8714;SDS011;4394;51.208;8.904;2024-03-02T04:31:57;17.13;;;11.27;;
8714;SDS011;4394;51.208;8.904;2024-03-02T04:34:45;21.03;;;12.37;;
8714;SDS011;4394;51.208;8.904;2024-03-02T04:37:35;19.00;;;11.77;;
8714;SDS011;4394;51.208;8.904;2024-03-02T04:40:23;20.17;;;12.23;;
8714;SDS011;4394;51.208;8.904;2024-03-02T04:43:11;20.40;;;12.30;;
8714;SDS011;4394;51.208;8.904;2024-03-02T04:46:03;19.17;;;11.73;;
8714;SDS011;4394;51.208;8.904;2024-03-02T04:48:52;20.13;;;12.33;;
8714;SDS011;4394;51.208;8.904;2024-03-02T04:51:43;17.63;;;11.70;;
8714;SDS011;4394;51.208;8.904;2024-03-02T04:54:33;19.30;;;12.47;;
8714;SDS011;4394;51.208;8.904;2024-03-02T04:57:43;18.50;;;11.23;;
8714;SDS011;4394;51.208;8.904;2024-03-02T05:00:32;19.40;;;12.03;;
8714;SDS011;4394;51.208;8.904;2024-03-02T05:03:22;19.83;;;11.80;;
8714;SDS011;4394;51.208;8.904;2024-03-02T05:06:11;19.30;;;11.77;;
8714;SDS011;4394;51.208;8.904;2024-03-02T05:08:59;19.97;;;12.13;;
8714;SDS011;4394;51.208;8.904;2024-03-02T05:11:49;20.37;;;11.63;;
8714;SDS011;4394;51.208;8.904;2024-03-02T05:14:58;17.53;;;11.50;;
8714;SDS011;4394;51.208;8.904;2024-03-02T05:17:46;21.30;;;12.27;;
8714;SDS011;4394;51.208;8.904;2024-03-02T05:20:35;19.13;;;12.03;;
8714;SDS011;4394;51.208;8.904;2024-03-02T05:23:24;20.90;;;12.40;;
8714;SDS011;4394;51.208;8.904;2024-03-02T05:26:13;18.80;;;11.97;;
8714;SDS011;4394;51.208;8.904;2024-03-02T05:29:02;20.53;;;11.93;;
8714;SDS011;4394;51.208;8.904;2024-03-02T05:31:51;20.47;;;12.47;;
8714;SDS011;4394;51.208;8.904;2024-03-02T05:34:39;20.80;;;12.30;;
8714;SDS011;4394;51.208;8.904;2024-03-02T05:37:27;22.63;;;12.50;;
8714;SDS011;4394;51.208;8.904;2024-03-02T05:40:16;19.50;;;11.13;;
8714;SDS011;4394;51.208;8.904;2024-03-02T05:43:07;19.73;;;12.53;;
8714;SDS011;4394;51.208;8.904;2024-03-02T05:45:57;20.00;;;12.23;;
8714;SDS011;4394;51.208;8.904;2024-03-02T05:48:46;21.67;;;12.40;;
8714;SDS011;4394;51.208;8.904;2024-03-02T05:51:34;22.10;;;12.17;;
8714;SDS011;4394;51.208;8.904;2024-03-02T05:54:23;21.67;;;12.70;;
8714;SDS011;4394;51.208;8.904;2024-03-02T05:57:11;22.20;;;13.00;;
8714;SDS011;4394;51.208;8.904;2024-03-02T06:00:20;23.67;;;13.17;;
8714;SDS011;4394;51.208;8.904;2024-03-02T06:03:10;24.93;;;15.30;;
8714;SDS011;4394;51.208;8.904;2024-03-02T06:05:59;24.60;;;14.17;;
8714;SDS011;4394;51.208;8.904;2024-03-02T06:08:48;22.57;;;13.57;;
8714;SDS011;4394;51.208;8.904;2024-03-02T06:11:36;20.87;;;12.40;;
8714;SDS011;4394;51.208;8.904;2024-03-02T06:14:25;21.37;;;13.63;;
8714;SDS011;4394;51.208;8.904;2024-03-02T06:17:15;24.30;;;13.67;;
8714;SDS011;4394;51.208;8.904;2024-03-02T06:20:05;20.30;;;12.60;;
8714;SDS011;4394;51.208;8.904;2024-03-02T06:22:55;24.13;;;13.20;;
8714;SDS011;4394;51.208;8.904;2024-03-02T06:25:44;19.93;;;12.37;;
8714;SDS011;4394;51.208;8.904;2024-03-02T06:28:32;25.07;;;13.73;;
8714;SDS011;4394;51.208;8.904;2024-03-02T06:31:21;22.43;;;12.60;;
8714;SDS011;4394;51.208;8.904;2024-03-02T06:34:09;23.43;;;13.20;;
8714;SDS011;4394;51.208;8.904;2024-03-02T06:36:59;25.20;;;14.00;;
8714;SDS011;4394;51.208;8.904;2024-03-02T06:39:48;23.37;;;13.87;;
8714;SDS011;4394;51.208;8.904;2024-03-02T06:42:36;22.27;;;13.87;;
8714;SDS011;4394;51.208;8.904;2024-03-02T06:45:25;24.53;;;14.17;;
8714;SDS011;4394;51.208;8.904;2024-03-02T06:48:15;22.57;;;13.90;;
8714;SDS011;4394;51.208;8.904;2024-03-02T06:51:07;25.83;;;14.63;;
8714;SDS011;4394;51.208;8.904;2024-03-02T06:53:58;25.70;;;14.40;;
8714;SDS011;4394;51.208;8.904;2024-03-02T06:56:48;23.27;;;14.23;;
8714;SDS011;4394;51.208;8.904;2024-03-02T06:59:36;22.77;;;13.67;;
8714;SDS011;4394;51.208;8.904;2024-03-02T07:02:25;25.30;;;14.93;;
8714;SDS011;4394;51.208;8.904;2024-03-02T07:05:14;22.23;;;14.20;;
8714;SDS011;4394;51.208;8.904;2024-03-02T07:08:04;24.53;;;14.10;;
8714;SDS011;4394;51.208;8.904;2024-03-02T07:10:55;24.20;;;14.00;;
8714;SDS011;4394;51.208;8.904;2024-03-02T07:13:44;23.13;;;13.87;;
8714;SDS011;4394;51.208;8.904;2024-03-02T07:16:33;21.13;;;13.70;;
8714;SDS011;4394;51.208;8.904;2024-03-02T07:19:21;21.90;;;13.20;;
8714;SDS011;4394;51.208;8.904;2024-03-02T07:22:10;23.07;;;13.33;;
8714;SDS011;4394;51.208;8.904;2024-03-02T07:24:59;19.70;;;13.00;;
8714;SDS011;4394;51.208;8.904;2024-03-02T07:27:50;24.37;;;14.33;;
8714;SDS011;4394;51.208;8.904;2024-03-02T07:30:40;27.20;;;14.43;;
8714;SDS011;4394;51.208;8.904;2024-03-02T07:33:29;24.03;;;13.43;;
8714;SDS011;4394;51.208;8.904;2024-03-02T07:36:18;21.50;;;12.97;;
8714;SDS011;4394;51.208;8.904;2024-03-02T07:39:08;26.80;;;13.43;;
8714;SDS011;4394;51.208;8.904;2024-03-02T07:41:57;21.47;;;13.30;;
8714;SDS011;4394;51.208;8.904;2024-03-02T07:44:48;22.13;;;12.77;;
8714;SDS011;4394;51.208;8.904;2024-03-02T07:47:37;20.37;;;12.80;;
8714;SDS011;4394;51.208;8.904;2024-03-02T07:50:29;19.13;;;12.30;;
8714;SDS011;4394;51.208;8.904;2024-03-02T07:53:23;21.37;;;12.50;;
8714;SDS011;4394;51.208;8.904;2024-03-02T07:56:12;21.63;;;12.70;;
8714;SDS011;4394;51.208;8.904;2024-03-02T07:59:03;22.47;;;14.17;;
8714;SDS011;4394;51.208;8.904;2024-03-02T08:01:56;24.77;;;14.40;;
8714;SDS011;4394;51.208;8.904;2024-03-02T08:04:46;26.43;;;14.67;;
8714;SDS011;4394;51.208;8.904;2024-03-02T08:07:37;25.30;;;13.83;;
8714;SDS011;4394;51.208;8.904;2024-03-02T08:10:25;23.63;;;13.00;;
8714;SDS011;4394;51.208;8.904;2024-03-02T08:13:16;22.03;;;12.30;;
8714;SDS011;4394;51.208;8.904;2024-03-02T08:16:05;18.50;;;11.73;;
8714;SDS011;4394;51.208;8.904;2024-03-02T08:18:57;19.90;;;11.83;;
8714;SDS011;4394;51.208;8.904;2024-03-02T08:21:48;18.33;;;11.17;;
8714;SDS011;4394;51.208;8.904;2024-03-02T08:24:37;19.67;;;11.63;;
8714;SDS011;4394;51.208;8.904;2024-03-02T08:27:26;18.47;;;11.40;;
8714;SDS011;4394;51.208;8.904;2024-03-02T08:30:15;18.17;;;10.83;;
8714;SDS011;4394;51.208;8.904;2024-03-02T08:33:04;20.53;;;11.67;;
8714;SDS011;4394;51.208;8.904;2024-03-02T08:35:56;18.63;;;11.43;;
8714;SDS011;4394;51.208;8.904;2024-03-02T08:38:45;15.90;;;10.37;;
8714;SDS011;4394;51.208;8.904;2024-03-02T08:41:35;16.73;;;10.80;;
8714;SDS011;4394;51.208;8.904;2024-03-02T08:44:24;15.93;;;10.50;;
8714;SDS011;4394;51.208;8.904;2024-03-02T08:47:13;17.77;;;11.40;;
8714;SDS011;4394;51.208;8.904;2024-03-02T08:50:03;16.17;;;10.97;;
8714;SDS011;4394;51.208;8.904;2024-03-02T08:52:55;14.90;;;9.87;;
8714;SDS011;4394;51.208;8.904;2024-03-02T08:55:44;16.23;;;10.30;;
8714;SDS011;4394;51.208;8.904;2024-03-02T08:58:35;15.07;;;10.07;;
8714;SDS011;4394;51.208;8.904;2024-03-02T09:01:24;16.50;;;10.57;;
8714;SDS011;4394;51.208;8.904;2024-03-02T09:04:14;14.20;;;9.87;;
8714;SDS011;4394;51.208;8.904;2024-03-02T09:07:03;15.07;;;10.20;;
8714;SDS011;4394;51.208;8.904;2024-03-02T09:09:55;12.77;;;8.90;;
8714;SDS011;4394;51.208;8.904;2024-03-02T09:12:44;12.30;;;8.73;;
8714;SDS011;4394;51.208;8.904;2024-03-02T09:15:32;12.40;;;8.50;;
8714;SDS011;4394;51.208;8.904;2024-03-02T09:18:24;15.00;;;9.17;;
8714;SDS011;4394;51.208;8.904;2024-03-02T09:21:13;12.63;;;8.57;;
8714;SDS011;4394;51.208;8.904;2024-03-02T09:24:03;11.97;;;8.23;;
8714;SDS011;4394;51.208;8.904;2024-03-02T09:26:56;11.50;;;8.00;;
8714;SDS011;4394;51.208;8.904;2024-03-02T09:29:48;11.73;;;7.70;;
8714;SDS011;4394;51.208;8.904;2024-03-02T09:32:37;12.47;;;7.47;;
8714;SDS011;4394;51.208;8.904;2024-03-02T09:35:26;11.00;;;7.90;;
8714;SDS011;4394;51.208;8.904;2024-03-02T09:38:17;12.13;;;8.20;;
8714;SDS011;4394;51.208;8.904;2024-03-02T09:41:06;11.00;;;7.97;;
8714;SDS011;4394;51.208;8.904;2024-03-02T09:43:57;10.67;;;7.53;;
8714;SDS011;4394;51.208;8.904;2024-03-02T09:46:48;11.10;;;7.57;;
8714;SDS011;4394;51.208;8.904;2024-03-02T09:49:37;10.27;;;7.70;;
8714;SDS011;4394;51.208;8.904;2024-03-02T09:52:26;8.63;;;7.03;;
8714;SDS011;4394;51.208;8.904;2024-03-02T09:55:16;8.97;;;6.87;;
8714;SDS011;4394;51.208;8.904;2024-03-02T09:58:07;9.07;;;7.47;;
8714;SDS011;4394;51.208;8.904;2024-03-02T10:01:03;10.10;;;7.20;;
8714;SDS011;4394;51.208;8.904;2024-03-02T10:03:54;10.03;;;7.50;;
8714;SDS011;4394;51.208;8.904;2024-03-02T10:06:45;9.20;;;7.10;;
8714;SDS011;4394;51.208;8.904;2024-03-02T10:09:35;8.87;;;6.40;;
8714;SDS011;4394;51.208;8.904;2024-03-02T10:12:26;9.00;;;6.30;;
8714;SDS011;4394;51.208;8.904;2024-03-02T10:15:15;8.37;;;6.00;;
8714;SDS011;4394;51.208;8.904;2024-03-02T10:18:18;7.87;;;5.97;;
8714;SDS011;4394;51.208;8.904;2024-03-02T10:21:18;8.33;;;6.13;;
8714;SDS011;4394;51.208;8.904;2024-03-02T10:24:09;9.40;;;6.13;;
8714;SDS011;4394;51.208;8.904;2024-03-02T10:26:59;8.13;;;6.07;;
8714;SDS011;4394;51.208;8.904;2024-03-02T10:29:50;7.87;;;5.90;;
8714;SDS011;4394;51.208;8.904;2024-03-02T10:32:39;8.37;;;6.13;;
8714;SDS011;4394;51.208;8.904;2024-03-02T10:35:32;8.90;;;5.90;;
8714;SDS011;4394;51.208;8.904;2024-03-02T10:38:23;7.03;;;5.67;;
8714;SDS011;4394;51.208;8.904;2024-03-02T10:41:16;6.00;;;5.00;;
8714;SDS011;4394;51.208;8.904;2024-03-02T10:44:08;8.17;;;5.30;;
8714;SDS011;4394;51.208;8.904;2024-03-02T10:47:02;7.43;;;4.97;;
8714;SDS011;4394;51.208;8.904;2024-03-02T10:49:53;7.23;;;5.03;;
8714;SDS011;4394;51.208;8.904;2024-03-02T10:52:53;7.30;;;5.40;;
8714;SDS011;4394;51.208;8.904;2024-03-02T10:55:44;8.17;;;5.53;;
8714;SDS011;4394;51.208;8.904;2024-03-02T10:58:43;6.00;;;4.93;;
8714;SDS011;4394;51.208;8.904;2024-03-02T11:01:39;8.60;;;5.30;;
8714;SDS011;4394;51.208;8.904;2024-03-02T11:04:31;8.17;;;5.57;;
8714;SDS011;4394;51.208;8.904;2024-03-02T11:07:23;8.03;;;6.47;;
8714;SDS011;4394;51.208;8.904;2024-03-02T11:10:18;6.20;;;5.07;;
8714;SDS011;4394;51.208;8.904;2024-03-02T11:13:09;9.93;;;6.17;;
8714;SDS011;4394;51.208;8.904;2024-03-02T11:16:03;7.53;;;5.50;;
8714;SDS011;4394;51.208;8.904;2024-03-02T11:18:55;6.70;;;4.93;;
8714;SDS011;4394;51.208;8.904;2024-03-02T11:21:49;6.80;;;5.10;;
8714;SDS011;4394;51.208;8.904;2024-03-02T11:24:38;7.03;;;5.27;;
8714;SDS011;4394;51.208;8.904;2024-03-02T11:30:52;7.43;;;5.13;;
8714;SDS011;4394;51.208;8.904;2024-03-02T11:33:44;6.80;;;5.20;;
8714;SDS011;4394;51.208;8.904;2024-03-02T11:36:34;6.23;;;4.43;;
8714;SDS011;4394;51.208;8.904;2024-03-02T11:39:24;6.67;;;5.00;;
8714;SDS011;4394;51.208;8.904;2024-03-02T11:42:15;7.10;;;5.07;;
8714;SDS011;4394;51.208;8.904;2024-03-02T11:45:10;6.47;;;4.67;;
8714;SDS011;4394;51.208;8.904;2024-03-02T11:48:01;5.77;;;4.33;;
8714;SDS011;4394;51.208;8.904;2024-03-02T11:50:57;7.37;;;4.43;;
8714;SDS011;4394;51.208;8.904;2024-03-02T11:53:50;5.87;;;4.70;;
8714;SDS011;4394;51.208;8.904;2024-03-02T11:56:43;5.93;;;4.60;;
8714;SDS011;4394;51.208;8.904;2024-03-02T11:59:34;4.87;;;3.53;;
8714;SDS011;4394;51.208;8.904;2024-03-02T12:02:24;5.47;;;3.80;;
8714;SDS011;4394;51.208;8.904;2024-03-02T12:05:14;4.70;;;3.73;;
8714;SDS011;4394;51.208;8.904;2024-03-02T12:08:06;5.43;;;4.00;;
8714;SDS011;4394;51.208;8.904;2024-03-02T12:10:58;6.53;;;3.90;;
8714;SDS011;4394;51.208;8.904;2024-03-02T12:13:55;4.57;;;3.80;;
8714;SDS011;4394;51.208;8.904;2024-03-02T12:16:47;4.93;;;3.23;;
8714;SDS011;4394;51.208;8.904;2024-03-02T12:19:41;5.33;;;3.07;;
8714;SDS011;4394;51.208;8.904;2024-03-02T12:22:34;4.93;;;3.83;;
8714;SDS011;4394;51.208;8.904;2024-03-02T12:25:28;4.23;;;3.33;;
8714;SDS011;4394;51.208;8.904;2024-03-02T12:28:21;3.63;;;3.20;;
8714;SDS011;4394;51.208;8.904;2024-03-02T12:31:11;5.73;;;3.60;;
8714;SDS011;4394;51.208;8.904;2024-03-02T12:34:06;4.37;;;3.37;;
8714;SDS011;4394;51.208;8.904;2024-03-02T12:37:03;5.70;;;3.43;;
8714;SDS011;4394;51.208;8.904;2024-03-02T12:39:57;3.83;;;2.90;;
8714;SDS011;4394;51.208;8.904;2024-03-02T12:42:51;3.97;;;3.20;;
8714;SDS011;4394;51.208;8.904;2024-03-02T12:45:42;3.57;;;3.03;;
8714;SDS011;4394;51.208;8.904;2024-03-02T12:48:31;4.03;;;2.97;;
8714;SDS011;4394;51.208;8.904;2024-03-02T12:51:22;4.87;;;3.77;;
8714;SDS011;4394;51.208;8.904;2024-03-02T12:54:14;4.10;;;3.40;;
8714;SDS011;4394;51.208;8.904;2024-03-02T12:57:07;3.97;;;3.43;;
8714;SDS011;4394;51.208;8.904;2024-03-02T12:59:59;3.63;;;2.73;;
8714;SDS011;4394;51.208;8.904;2024-03-02T13:02:56;4.30;;;3.27;;
8714;SDS011;4394;51.208;8.904;2024-03-02T13:05:51;4.37;;;3.00;;
8714;SDS011;4394;51.208;8.904;2024-03-02T13:08:41;3.63;;;2.90;;
8714;SDS011;4394;51.208;8.904;2024-03-02T13:11:31;4.37;;;2.13;;
8714;SDS011;4394;51.208;8.904;2024-03-02T13:14:21;3.17;;;2.10;;
8714;SDS011;4394;51.208;8.904;2024-03-02T13:17:11;3.50;;;2.63;;
8714;SDS011;4394;51.208;8.904;2024-03-02T13:20:01;3.13;;;2.50;;
8714;SDS011;4394;51.208;8.904;2024-03-02T13:22:55;3.63;;;2.40;;
8714;SDS011;4394;51.208;8.904;2024-03-02T13:25:44;4.87;;;2.57;;
8714;SDS011;4394;51.208;8.904;2024-03-02T13:28:35;2.63;;;2.13;;
8714;SDS011;4394;51.208;8.904;2024-03-02T13:31:26;2.47;;;2.03;;
8714;SDS011;4394;51.208;8.904;2024-03-02T13:34:15;2.77;;;2.20;;
8714;SDS011;4394;51.208;8.904;2024-03-02T13:37:04;2.10;;;1.90;;
8714;SDS011;4394;51.208;8.904;2024-03-02T13:39:55;2.47;;;1.80;;
8714;SDS011;4394;51.208;8.904;2024-03-02T13:42:45;8.97;;;2.30;;
8714;SDS011;4394;51.208;8.904;2024-03-02T13:45:45;1.87;;;1.50;;
8714;SDS011;4394;51.208;8.904;2024-03-02T13:48:39;22.13;;;3.93;;
8714;SDS011;4394;51.208;8.904;2024-03-02T13:51:41;4.30;;;2.30;;
8714;SDS011;4394;51.208;8.904;2024-03-02T13:54:36;3.23;;;1.80;;
8714;SDS011;4394;51.208;8.904;2024-03-02T13:57:26;1.77;;;1.60;;
8714;SDS011;4394;51.208;8.904;2024-03-02T14:00:17;2.93;;;1.57;;
8714;SDS011;4394;51.208;8.904;2024-03-02T14:03:10;3.27;;;1.77;;
8714;SDS011;4394;51.208;8.904;2024-03-02T14:06:01;4.20;;;1.70;;
8714;SDS011;4394;51.208;8.904;2024-03-02T14:08:51;4.97;;;2.20;;
8714;SDS011;4394;51.208;8.904;2024-03-02T14:11:41;2.10;;;1.77;;
8714;SDS011;4394;51.208;8.904;2024-03-02T14:14:34;1.90;;;1.30;;
8714;SDS011;4394;51.208;8.904;2024-03-02T14:17:22;2.43;;;1.50;;
8714;SDS011;4394;51.208;8.904;2024-03-02T14:20:12;2.30;;;1.03;;
8714;SDS011;4394;51.208;8.904;2024-03-02T14:23:00;2.40;;;1.00;;
8714;SDS011;4394;51.208;8.904;2024-03-02T14:25:52;2.03;;;1.00;;
8714;SDS011;4394;51.208;8.904;2024-03-02T14:28:41;1.37;;;0.93;;
8714;SDS011;4394;51.208;8.904;2024-03-02T14:31:37;0.93;;;0.63;;
8714;SDS011;4394;51.208;8.904;2024-03-02T14:34:26;10.97;;;2.10;;
8714;SDS011;4394;51.208;8.904;2024-03-02T14:37:16;3.57;;;1.17;;
8714;SDS011;4394;51.208;8.904;2024-03-02T14:40:06;2.80;;;1.10;;
8714;SDS011;4394;51.208;8.904;2024-03-02T14:42:56;1.30;;;1.20;;
8714;SDS011;4394;51.208;8.904;2024-03-02T14:45:44;2.03;;;1.17;;
8714;SDS011;4394;51.208;8.904;2024-03-02T14:48:33;2.13;;;1.50;;
8714;SDS011;4394;51.208;8.904;2024-03-02T14:51:22;5.47;;;1.60;;
8714;SDS011;4394;51.208;8.904;2024-03-02T14:54:14;4.43;;;2.13;;
8714;SDS011;4394;51.208;8.904;2024-03-02T14:57:02;4.27;;;2.50;;
8714;SDS011;4394;51.208;8.904;2024-03-02T14:59:59;4.20;;;2.87;;
8714;SDS011;4394;51.208;8.904;2024-03-02T15:04:00;4.53;;;2.90;;
8714;SDS011;4394;51.208;8.904;2024-03-02T15:06:53;6.53;;;4.97;;
8714;SDS011;4394;51.208;8.904;2024-03-02T15:09:53;4.03;;;3.47;;
8714;SDS011;4394;51.208;8.904;2024-03-02T15:12:45;7.07;;;3.03;;
8714;SDS011;4394;51.208;8.904;2024-03-02T15:15:38;6.53;;;3.70;;
8714;SDS011;4394;51.208;8.904;2024-03-02T15:18:28;3.47;;;2.73;;
8714;SDS011;4394;51.208;8.904;2024-03-02T15:21:18;3.70;;;2.70;;
8714;SDS011;4394;51.208;8.904;2024-03-02T15:24:10;6.60;;;3.20;;
8714;SDS011;4394;51.208;8.904;2024-03-02T15:27:02;3.07;;;2.37;;
8714;SDS011;4394;51.208;8.904;2024-03-02T15:29:53;2.93;;;2.63;;
8714;SDS011;4394;51.208;8.904;2024-03-02T15:32:44;3.30;;;2.73;;
8714;SDS011;4394;51.208;8.904;2024-03-02T15:35:34;3.13;;;2.33;;
8714;SDS011;4394;51.208;8.904;2024-03-02T15:38:23;3.23;;;2.43;;
8714;SDS011;4394;51.208;8.904;2024-03-02T15:41:21;3.57;;;2.00;;
8714;SDS011;4394;51.208;8.904;2024-03-02T15:44:11;4.13;;;2.00;;
8714;SDS011;4394;51.208;8.904;2024-03-02T15:47:01;3.87;;;2.47;;
8714;SDS011;4394;51.208;8.904;2024-03-02T15:49:51;3.13;;;2.50;;
8714;SDS011;4394;51.208;8.904;2024-03-02T15:52:43;3.93;;;2.23;;
8714;SDS011;4394;51.208;8.904;2024-03-02T15:55:34;2.60;;;2.17;;
8714;SDS011;4394;51.208;8.904;2024-03-02T15:58:23;2.57;;;2.27;;
8714;SDS011;4394;51.208;8.904;2024-03-02T16:01:15;3.60;;;2.47;;
8714;SDS011;4394;51.208;8.904;2024-03-02T16:04:06;3.40;;;2.33;;
8714;SDS011;4394;51.208;8.904;2024-03-02T16:06:56;2.33;;;2.03;;
8714;SDS011;4394;51.208;8.904;2024-03-02T16:09:47;3.43;;;2.10;;
8714;SDS011;4394;51.208;8.904;2024-03-02T16:12:37;2.43;;;2.13;;
8714;SDS011;4394;51.208;8.904;2024-03-02T16:15:28;3.30;;;2.30;;
8714;SDS011;4394;51.208;8.904;2024-03-02T16:18:18;3.10;;;2.80;;
8714;SDS011;4394;51.208;8.904;2024-03-02T16:21:08;2.47;;;2.27;;
8714;SDS011;4394;51.208;8.904;2024-03-02T16:23:57;2.93;;;2.63;;
8714;SDS011;4394;51.208;8.904;2024-03-02T16:26:47;4.27;;;3.47;;
8714;SDS011;4394;51.208;8.904;2024-03-02T16:29:35;7.17;;;5.50;;
8714;SDS011;4394;51.208;8.904;2024-03-02T16:32:26;12.77;;;8.83;;
8714;SDS011;4394;51.208;8.904;2024-03-02T16:35:16;13.50;;;9.87;;
8714;SDS011;4394;51.208;8.904;2024-03-02T16:38:05;9.83;;;7.70;;
8714;SDS011;4394;51.208;8.904;2024-03-02T16:40:54;7.20;;;5.63;;
8714;SDS011;4394;51.208;8.904;2024-03-02T16:43:43;11.07;;;6.63;;
8714;SDS011;4394;51.208;8.904;2024-03-02T16:46:34;7.97;;;5.37;;
8714;SDS011;4394;51.208;8.904;2024-03-02T16:49:26;2.77;;;2.50;;
8714;SDS011;4394;51.208;8.904;2024-03-02T16:52:20;3.43;;;2.60;;
8714;SDS011;4394;51.208;8.904;2024-03-02T16:55:11;4.40;;;3.10;;
8714;SDS011;4394;51.208;8.904;2024-03-02T16:58:02;4.80;;;4.00;;
8714;SDS011;4394;51.208;8.904;2024-03-02T17:00:53;6.90;;;5.10;;
8714;SDS011;4394;51.208;8.904;2024-03-02T17:03:43;6.20;;;4.33;;
8714;SDS011;4394;51.208;8.904;2024-03-02T17:06:33;5.83;;;4.23;;
8714;SDS011;4394;51.208;8.904;2024-03-02T17:09:23;4.93;;;4.20;;
8714;SDS011;4394;51.208;8.904;2024-03-02T17:12:13;5.53;;;4.53;;
8714;SDS011;4394;51.208;8.904;2024-03-02T17:15:02;6.00;;;4.70;;
8714;SDS011;4394;51.208;8.904;2024-03-02T17:17:53;6.40;;;5.17;;
8714;SDS011;4394;51.208;8.904;2024-03-02T17:20:42;7.30;;;5.40;;
8714;SDS011;4394;51.208;8.904;2024-03-02T17:23:32;6.30;;;5.37;;
8714;SDS011;4394;51.208;8.904;2024-03-02T17:26:24;9.67;;;6.50;;
8714;SDS011;4394;51.208;8.904;2024-03-02T17:29:13;8.20;;;6.07;;
8714;SDS011;4394;51.208;8.904;2024-03-02T17:32:03;7.40;;;5.87;;